Time;durP1;ratioP1;P1;durP2;ratioP2;P2;SDS_P1;SDS_P2;PMS_P1;PMS_P2;Temp;Humidity;BMP_temperature;BMP_pressure;BME280_temperature;BME280_humidity;BME280_pressure;Samples;Min_cycle;Max_cycle;Signal;HPM_P1;HPM_P2
2023/01/23 00:01:24;;;;;;;13.35;6.65;;;;;;;-1.32;100.00;100033.31;4202667;28;20051;-73
2023/01/23 00:03:24;;;;;;;12.95;7.30;;;;;;;-1.30;100.00;100036.56;4203406;28;20051;-73
2023/01/23 00:05:25;;;;;;;11.60;6.00;;;;;;;-1.31;100.00;100029.50;4203833;28;20051;-73
2023/01/23 00:07:25;;;;;;;14.00;7.35;;;;;;;-1.34;100.00;100025.38;4210344;28;20127;-73
2023/01/23 00:09:25;;;;;;;12.10;6.80;;;;;;;-1.33;100.00;100026.22;4217621;27;20036;-73
2023/01/23 00:11:28;;;;;;;13.45;6.50;;;;;;;-1.36;100.00;100022.13;4217980;28;20266;-73
2023/01/23 00:13:29;;;;;;;12.48;6.55;;;;;;;-1.37;100.00;100027.81;4213686;28;20043;-73
2023/01/23 00:15:31;;;;;;;13.38;6.07;;;;;;;-1.34;100.00;100030.81;4208471;28;20035;-73
2023/01/23 00:17:32;;;;;;;13.65;6.30;;;;;;;-1.34;100.00;100030.81;4217581;28;20044;-73
2023/01/23 00:19:32;;;;;;;15.27;6.85;;;;;;;-1.37;100.00;100036.78;4204573;28;20050;-73
2023/01/23 00:21:32;;;;;;;13.07;5.85;;;;;;;-1.34;100.00;100036.25;4202612;28;20040;-73
2023/01/23 00:23:33;;;;;;;14.27;6.97;;;;;;;-1.34;100.00;100035.44;4207205;28;20046;-73
2023/01/23 00:25:34;;;;;;;12.35;6.28;;;;;;;-1.36;100.00;100037.59;4217834;28;20492;-73
2023/01/23 00:27:35;;;;;;;12.60;6.68;;;;;;;-1.38;100.00;100028.91;4218050;28;20039;-73
2023/01/23 00:29:35;;;;;;;12.35;7.10;;;;;;;-1.32;100.00;100039.53;4217939;28;20040;-73
2023/01/23 00:31:37;;;;;;;11.75;6.25;;;;;;;-1.29;100.00;100039.00;4216546;28;20467;-73
2023/01/23 00:33:39;;;;;;;12.30;6.68;;;;;;;-1.33;100.00;100031.63;4201946;28;20067;-73
2023/01/23 00:35:39;;;;;;;11.77;6.43;;;;;;;-1.32;100.00;100036.00;4202376;28;20071;-73
2023/01/23 00:37:40;;;;;;;13.88;6.82;;;;;;;-1.32;100.00;100030.59;4202581;28;20036;-73
2023/01/23 00:39:41;;;;;;;12.93;6.60;;;;;;;-1.34;100.00;100038.97;4216168;27;20516;-73
2023/01/23 00:41:41;;;;;;;13.25;6.80;;;;;;;-1.34;100.00;100033.53;4217954;28;20136;-73
2023/01/23 00:43:41;;;;;;;15.48;6.68;;;;;;;-1.31;100.00;100029.50;4217006;28;20094;-73
2023/01/23 00:45:42;;;;;;;15.57;7.38;;;;;;;-1.33;100.00;100028.91;4218066;28;20035;-73
2023/01/23 00:47:42;;;;;;;15.07;7.13;;;;;;;-1.33;100.00;100021.59;4217266;28;20044;-73
2023/01/23 00:49:43;;;;;;;15.20;7.47;;;;;;;-1.34;100.00;100024.56;4217542;28;20856;-73
2023/01/23 00:51:44;;;;;;;16.88;7.65;;;;;;;-1.35;100.00;100029.19;4217955;28;20131;-73
2023/01/23 00:53:44;;;;;;;12.63;6.82;;;;;;;-1.36;100.00;100033.00;4201535;28;20051;-73
2023/01/23 00:55:45;;;;;;;12.77;6.45;;;;;;;-1.36;100.00;100045.75;4202865;28;20047;-73
2023/01/23 00:57:45;;;;;;;13.77;7.07;;;;;;;-1.35;100.00;100037.34;4208450;28;20043;-73
2023/01/23 00:59:45;;;;;;;15.25;7.18;;;;;;;-1.37;100.00;100034.06;4217559;28;20126;-73
2023/01/23 01:01:46;;;;;;;14.27;7.28;;;;;;;-1.35;100.00;100041.94;4217461;28;20051;-73
2023/01/23 01:03:46;;;;;;;12.52;6.90;;;;;;;-1.36;100.00;100041.13;4217287;28;20130;-73
2023/01/23 01:05:47;;;;;;;14.35;7.55;;;;;;;-1.39;100.00;100038.94;4217803;28;20122;-73
2023/01/23 01:07:47;;;;;;;13.32;7.38;;;;;;;-1.36;100.00;100043.03;4212851;28;20035;-73
2023/01/23 01:09:47;;;;;;;13.60;7.57;;;;;;;-1.38;100.00;100045.19;4218040;28;20040;-73
2023/01/23 01:11:48;;;;;;;15.85;7.88;;;;;;;-1.38;100.00;100037.06;4216949;28;20089;-73
2023/01/23 01:13:50;;;;;;;14.93;8.30;;;;;;;-1.39;100.00;100040.84;4213455;28;20051;-73
2023/01/23 01:15:52;;;;;;;13.93;7.75;;;;;;;-1.43;100.00;100048.69;4208544;28;20052;-73
2023/01/23 01:17:53;;;;;;;11.80;6.97;;;;;;;-1.40;100.00;100048.19;4202213;28;20052;-73
2023/01/23 01:19:53;;;;;;;15.80;8.27;;;;;;;-1.41;100.00;100054.66;4201676;28;20032;-73
2023/01/23 01:21:53;;;;;;;13.32;7.50;;;;;;;-1.40;100.00;100053.59;4208231;28;20141;-73
2023/01/23 01:23:54;;;;;;;15.40;7.90;;;;;;;-1.39;100.00;100059.84;4217473;28;20177;-73
2023/01/23 01:25:58;;;;;;;13.43;7.32;;;;;;;-1.40;100.00;100058.22;4207472;28;20047;-73
2023/01/23 01:27:58;;;;;;;14.02;7.90;;;;;;;-1.42;100.00;100061.19;4213323;28;20057;-73
2023/01/23 01:29:58;;;;;;;14.35;7.65;;;;;;;-1.43;100.00;100065.78;4209574;28;20537;-73
2023/01/23 01:31:59;;;;;;;11.65;6.82;;;;;;;-1.40;100.00;100074.50;4209666;28;20079;-73
2023/01/23 01:33:59;;;;;;;11.10;6.53;;;;;;;-1.42;100.00;100075.56;4217000;28;20414;-73
2023/01/23 01:36:00;;;;;;;14.70;6.88;;;;;;;-1.43;100.00;100068.50;4216688;28;20089;-73
2023/01/23 01:38:01;;;;;;;13.20;7.50;;;;;;;-1.43;100.00;100067.69;4217741;28;20046;-73
2023/01/23 01:40:03;;;;;;;11.85;6.60;;;;;;;-1.42;100.00;100069.31;4216860;28;20456;-73
2023/01/23 01:42:03;;;;;;;12.27;6.43;;;;;;;-1.40;100.00;100072.63;4217748;28;20220;-73
2023/01/23 01:44:04;;;;;;;13.77;6.80;;;;;;;-1.41;100.00;100070.94;4204148;28;20085;-73
2023/01/23 01:46:23;;;;;;;12.73;6.95;;;;;;;-1.44;100.00;100071.47;4203613;28;20034;-73
2023/01/23 01:48:29;;;;;;;10.95;6.47;;;;;;;-1.44;100.00;100077.72;4216113;28;20420;-73
2023/01/23 01:50:29;;;;;;;11.60;6.45;;;;;;;-1.44;100.00;100093.19;4213094;28;20058;-73
2023/01/23 01:52:30;;;;;;;13.10;7.28;;;;;;;-1.43;100.00;100086.69;4205622;28;20207;-73
2023/01/23 01:54:55;;;;;;;11.68;6.10;;;;;;;-1.43;100.00;100092.13;4206842;28;20411;-73
2023/01/23 01:57:13;;;;;;;11.75;5.90;;;;;;;-1.39;100.00;100092.44;4202149;28;20524;-73
2023/01/23 01:59:15;;;;;;;11.60;7.03;;;;;;;-1.44;100.00;100087.78;4201781;28;20102;-73
2023/01/23 02:01:15;;;;;;;14.33;7.63;;;;;;;-1.42;100.00;100100.00;4204157;28;20051;-73
2023/01/23 02:03:18;;;;;;;12.45;6.88;;;;;;;-1.43;100.00;100097.56;4204109;28;20086;-73
2023/01/23 02:05:23;;;;;;;;;;;;;;;-1.40;100.00;100104.38;4208270;28;20387;-73
2023/01/23 02:07:28;;;;;;;11.18;5.60;;;;;;;-1.44;100.00;100101.34;4220699;28;19916;-73
2023/01/23 02:09:32;;;;;;;13.02;6.85;;;;;;;-1.46;100.00;100098.09;4204137;28;20433;-73
2023/01/23 02:11:32;;;;;;;12.23;6.70;;;;;;;-1.44;100.00;100098.63;4208957;28;20039;-73
2023/01/23 02:13:38;;;;;;;13.07;7.50;;;;;;;-1.45;100.00;100097.00;4203832;28;20104;-73
2023/01/23 02:15:39;;;;;;;11.70;6.85;;;;;;;-1.47;100.00;100101.88;4211980;28;20044;-73
2023/01/23 02:17:42;;;;;;;11.75;6.32;;;;;;;-1.45;100.00;100102.44;4220082;28;20464;-73
2023/01/23 02:20:06;;;;;;;14.90;6.90;;;;;;;-1.45;100.00;100099.72;4220312;27;20552;-73
2023/01/23 02:22:16;;;;;;;12.43;6.88;;;;;;;-1.41;100.00;100100.81;4220057;28;20071;-73
2023/01/23 02:24:30;;;;;;;11.00;6.75;;;;;;;-1.44;100.00;100107.59;4215889;28;20134;-73
2023/01/23 02:26:36;;;;;;;14.23;7.53;;;;;;;-1.46;100.00;100106.22;4205274;28;20050;-73
2023/01/23 02:28:45;;;;;;;13.48;7.38;;;;;;;-1.46;100.00;100104.31;4204401;28;20420;-73
2023/01/23 02:30:45;;;;;;;13.32;7.15;;;;;;;-1.47;100.00;100102.69;4217342;28;20138;-73
2023/01/23 02:32:46;;;;;;;12.10;6.45;;;;;;;-1.47;100.00;100102.69;4219735;28;20491;-73
2023/01/23 02:34:46;;;;;;;11.93;6.60;;;;;;;-1.47;100.00;100096.44;4211321;28;20488;-73
2023/01/23 02:36:47;;;;;;;14.20;7.18;;;;;;;-1.46;100.00;100092.66;4204843;28;20044;-73
2023/01/23 02:39:07;;;;;;;15.32;7.72;;;;;;;-1.46;100.00;100098.09;4210665;28;20055;-73
2023/01/23 02:41:12;;;;;;;16.95;7.55;;;;;;;-1.46;100.00;100100.78;4204298;28;20052;-73
2023/01/23 02:43:18;;;;;;;17.80;8.18;;;;;;;-1.46;100.00;100098.91;4205002;28;20048;-73
2023/01/23 02:45:19;;;;;;;17.23;8.65;;;;;;;-1.46;100.00;100098.09;4219786;28;20252;-73
2023/01/23 02:47:19;;;;;;;16.85;8.20;;;;;;;-1.48;100.00;100094.81;4219760;28;20086;-73
2023/01/23 02:49:20;;;;;;;15.77;8.75;;;;;;;-1.47;100.00;100091.84;4219684;28;20047;-73
2023/01/23 02:51:21;;;;;;;16.48;8.23;;;;;;;-1.47;100.00;100099.16;4219021;28;20051;-73
2023/01/23 02:53:22;;;;;;;17.08;7.82;;;;;;;-1.51;100.00;100088.00;4209907;27;20060;-73
2023/01/23 02:55:25;;;;;;;18.13;9.13;;;;;;;-1.51;100.00;100095.31;4215967;27;20043;-73
2023/01/23 02:57:25;;;;;;;18.33;9.05;;;;;;;-1.48;100.00;100094.81;4218598;28;20435;-73
2023/01/23 03:01:44;;;;;;;19.85;9.75;;;;;;;-1.49;100.00;100099.44;4204043;28;20085;-73
2023/01/23 03:03:45;;;;;;;15.45;7.55;;;;;;;-1.49;100.00;100106.72;4203399;28;20476;-73
2023/01/23 03:05:45;;;;;;;24.17;9.93;;;;;;;-1.49;100.00;100109.44;4213162;28;20047;-73
2023/01/23 03:07:46;;;;;;;19.83;8.32;;;;;;;-1.51;100.00;100114.31;4219695;28;20521;-73
2023/01/23 03:09:47;;;;;;;22.08;9.57;;;;;;;-1.52;100.00;100109.97;4203579;28;20177;-73
2023/01/23 03:11:48;;;;;;;18.13;9.38;;;;;;;-1.49;100.00;100120.31;4203190;28;20048;-73
2023/01/23 03:13:48;;;;;;;20.77;9.40;;;;;;;-1.51;100.00;100120.56;4208914;28;20048;-73
2023/01/23 03:15:51;;;;;;;28.25;10.93;;;;;;;-1.50;100.00;100126.81;4211819;28;20101;-73
2023/01/23 03:17:52;;;;;;;21.58;10.30;;;;;;;-1.51;100.00;100127.88;4203687;28;20052;-73
2023/01/23 03:19:53;;;;;;;23.48;10.90;;;;;;;-1.51;100.00;100117.03;4203796;28;20611;-73
2023/01/23 03:21:54;;;;;;;18.60;8.43;;;;;;;-1.50;100.00;100124.09;4208360;28;20115;-73
2023/01/23 03:23:54;;;;;;;20.35;10.00;;;;;;;-1.51;100.00;100126.00;4217808;28;20047;-73
2023/01/23 03:25:57;;;;;;;19.88;8.68;;;;;;;-1.51;100.00;100122.47;4212895;27;20115;-73
2023/01/23 03:27:57;;;;;;;25.52;9.50;;;;;;;-1.49;100.00;100129.28;4209539;28;20058;-73
2023/01/23 03:30:14;;;;;;;27.15;11.30;;;;;;;-1.48;100.00;100139.06;4219646;28;20429;-73
2023/01/23 03:32:16;;;;;;;21.77;10.43;;;;;;;-1.50;100.00;100140.38;4210440;28;20414;-73
2023/01/23 03:34:21;;;;;;;23.90;10.15;;;;;;;-1.49;100.00;100131.16;4218825;28;20315;-73
2023/01/23 03:36:21;;;;;;;22.13;10.45;;;;;;;-1.52;100.00;100135.22;4202266;28;20048;-73
2023/01/23 03:38:21;;;;;;;22.70;9.93;;;;;;;-1.48;100.00;100139.06;4203102;28;20036;-73
2023/01/23 03:42:42;;;;;;;25.17;10.43;;;;;;;-1.50;100.00;100140.38;4211137;28;20734;-73
2023/01/23 03:44:42;;;;;;;27.85;9.80;;;;;;;-1.49;100.00;100142.00;4203523;28;20047;-73
2023/01/23 03:46:43;;;;;;;28.20;11.35;;;;;;;-1.49;100.00;100142.88;4203592;28;20040;-73
2023/01/23 03:48:44;;;;;;;30.65;10.98;;;;;;;-1.51;100.00;100141.47;4216757;28;20096;-73
2023/01/23 03:50:44;;;;;;;23.45;10.35;;;;;;;-1.50;100.00;100145.81;4216225;27;20043;-73
2023/01/23 03:52:44;;;;;;;27.55;10.77;;;;;;;-1.53;100.00;100149.88;4202723;28;20380;-73
2023/01/23 03:54:45;;;;;;;28.05;11.57;;;;;;;-1.48;100.00;100149.09;4203089;28;20131;-73
2023/01/23 03:56:45;;;;;;;33.28;12.10;;;;;;;-1.52;100.00;100139.81;4203271;28;20078;-73
2023/01/23 03:58:45;;;;;;;25.27;10.20;;;;;;;-1.50;100.00;100145.81;4202509;28;20686;-73
2023/01/23 04:00:45;;;;;;;24.70;10.73;;;;;;;-1.50;100.00;100152.06;4203059;28;20127;-73
2023/01/23 04:02:46;;;;;;;25.40;10.00;;;;;;;-1.49;100.00;100147.44;4202509;28;20224;-73
2023/01/23 04:04:46;;;;;;;28.05;10.48;;;;;;;-1.49;100.00;100155.59;4212458;28;20127;-73
2023/01/23 04:06:46;;;;;;;26.42;11.10;;;;;;;-1.50;100.00;100151.25;4211736;28;20086;-73
2023/01/23 04:08:47;;;;;;;25.45;10.70;;;;;;;-1.52;100.00;100161.53;4203137;28;20315;-73
2023/01/23 04:10:47;;;;;;;30.65;10.13;;;;;;;-1.49;100.00;100167.28;4202964;28;20088;-73
2023/01/23 04:12:47;;;;;;;26.17;11.70;;;;;;;-1.51;100.00;100161.28;4216553;28;20506;-73
2023/01/23 04:14:48;;;;;;;28.08;10.38;;;;;;;-1.53;100.00;100159.91;4218807;28;20207;-73
2023/01/23 04:16:48;;;;;;;30.02;10.63;;;;;;;-1.49;100.00;100169.16;4209405;28;20101;-73
2023/01/23 04:18:49;;;;;;;31.80;10.32;;;;;;;-1.51;100.00;100161.28;4217676;28;20067;-73
2023/01/23 04:20:50;;;;;;;29.38;11.55;;;;;;;-1.49;100.00;100156.44;4218463;28;20043;-73
2023/01/23 04:22:50;;;;;;;23.70;10.13;;;;;;;-1.50;100.00;100156.66;4202305;28;20116;-73
2023/01/23 04:24:50;;;;;;;23.35;10.10;;;;;;;-1.49;100.00;100164.59;4213004;28;20134;-73
2023/01/23 04:26:51;;;;;;;31.58;10.82;;;;;;;-1.50;100.00;100156.66;4207990;28;20135;-73
2023/01/23 04:28:52;;;;;;;24.90;9.90;;;;;;;-1.47;100.00;100172.47;4211593;28;20044;-73
2023/01/23 04:30:52;;;;;;;27.15;11.25;;;;;;;-1.49;100.00;100166.44;4202327;28;20067;-73
2023/01/23 04:32:52;;;;;;;27.65;11.43;;;;;;;-1.47;100.00;100172.47;4207914;28;20051;-73
2023/01/23 04:34:53;;;;;;;30.55;11.32;;;;;;;-1.51;100.00;100174.03;4212885;28;20039;-73
2023/01/23 04:36:53;;;;;;;28.00;11.30;;;;;;;-1.49;100.00;100175.44;4217653;28;20043;-73
2023/01/23 04:38:53;;;;;;;26.08;10.10;;;;;;;-1.51;100.00;100176.75;4212376;28;20171;-73
2023/01/23 04:40:54;;;;;;;32.83;11.15;;;;;;;-1.53;100.00;100173.47;4208815;28;20463;-73
2023/01/23 04:42:54;;;;;;;29.38;11.10;;;;;;;-1.50;100.00;100171.06;4207579;28;20134;-73
2023/01/23 04:44:55;;;;;;;30.88;11.07;;;;;;;-1.51;100.00;100165.91;4207061;28;20048;-73
2023/01/23 04:46:55;;;;;;;29.25;10.77;;;;;;;-1.50;100.00;100167.53;4206070;28;20063;-73
2023/01/23 04:48:55;;;;;;;31.92;10.27;;;;;;;-1.49;100.00;100161.88;4204844;28;20040;-73
2023/01/23 04:50:56;;;;;;;32.58;11.50;;;;;;;-1.44;100.00;100161.06;4206903;28;20464;-73
2023/01/23 04:52:57;;;;;;;30.52;10.15;;;;;;;-1.45;100.00;100159.44;4204694;28;20498;-73
2023/01/23 04:54:57;;;;;;;28.67;11.25;;;;;;;-1.47;100.00;100159.72;4207105;28;20353;-73
2023/01/23 04:56:58;;;;;;;27.27;10.35;;;;;;;-1.47;100.00;100151.56;4204946;28;20052;-73
2023/01/23 04:58:58;;;;;;;27.50;10.07;;;;;;;-1.47;100.00;100164.31;4205882;28;20048;-73
2023/01/23 05:01:06;;;;;;;38.55;12.93;;;;;;;-1.45;100.00;100160.25;4208753;28;20435;-73
2023/01/23 05:03:07;;;;;;;32.33;11.63;;;;;;;-1.47;100.00;100167.84;4204765;28;20054;-73
2023/01/23 05:05:08;;;;;;;24.55;10.38;;;;;;;-1.47;100.00;100172.47;4203578;28;20117;-73
2023/01/23 05:07:11;;;;;;;26.98;10.88;;;;;;;-1.48;100.00;100174.34;4210205;28;20537;-73
2023/01/23 05:09:12;;;;;;;34.72;12.07;;;;;;;-1.49;100.00;100174.59;4209666;28;20039;-73
2023/01/23 05:11:12;;;;;;;29.70;12.25;;;;;;;-1.51;100.00;100182.19;4205401;28;20040;-73
2023/01/23 05:13:13;;;;;;;31.17;12.10;;;;;;;-1.52;100.00;100184.09;4208623;28;20466;-73
2023/01/23 05:15:13;;;;;;;29.30;11.13;;;;;;;-1.51;100.00;100183.00;4207091;28;20067;-73
2023/01/23 05:17:13;;;;;;;28.20;10.75;;;;;;;-1.49;100.00;100185.44;4204603;28;20079;-73
2023/01/23 05:19:14;;;;;;;29.75;12.02;;;;;;;-1.49;100.00;100191.72;4206226;28;20052;-73
2023/01/23 05:21:14;;;;;;;28.08;11.63;;;;;;;-1.48;100.00;100189.84;4207974;28;20472;-73
2023/01/23 05:23:15;;;;;;;28.70;10.68;;;;;;;-1.49;100.00;100189.00;4206457;28;20044;-73
2023/01/23 05:25:15;;;;;;;29.33;11.95;;;;;;;-1.49;100.00;100188.16;4205394;28;20040;-73
2023/01/23 05:27:15;;;;;;;32.88;11.27;;;;;;;-1.46;100.00;100193.09;4204355;28;20054;-73
2023/01/23 05:29:16;;;;;;;36.22;12.02;;;;;;;-1.48;100.00;100193.38;4207370;28;20441;-73
2023/01/23 05:31:16;;;;;;;31.38;12.80;;;;;;;-1.51;100.00;100179.47;4201403;28;20516;-73
2023/01/23 05:33:16;;;;;;;29.50;11.38;;;;;;;-1.50;100.00;100183.81;4204771;28;20551;-73
2023/01/23 05:35:17;;;;;;;32.22;12.95;;;;;;;-1.44;100.00;100190.94;4202681;28;20106;-73
2023/01/23 05:37:19;;;;;;;32.88;12.40;;;;;;;-1.49;100.00;100196.31;4211480;28;20127;-73
2023/01/23 05:39:19;;;;;;;40.75;12.73;;;;;;;-1.47;100.00;100195.00;4209786;28;20075;-73
2023/01/23 05:41:19;;;;;;;33.97;12.55;;;;;;;-1.46;100.00;100201.25;4210881;28;20140;-73
2023/01/23 05:43:20;;;;;;;32.13;12.23;;;;;;;-1.49;100.00;100199.03;4209808;28;20221;-73
2023/01/23 05:45:21;;;;;;;37.53;12.85;;;;;;;-1.49;100.00;100208.03;4207459;28;20042;-73
2023/01/23 05:47:21;;;;;;;27.95;11.35;;;;;;;-1.48;100.00;100208.84;4203144;28;20632;-73
2023/01/23 05:49:21;;;;;;;39.90;14.48;;;;;;;-1.47;100.00;100214.00;4199716;28;20047;-73
2023/01/23 05:51:22;;;;;;;74.07;14.68;;;;;;;-1.50;100.00;100210.97;4201535;28;20052;-73
2023/01/23 05:53:23;;;;;;;42.78;13.35;;;;;;;-1.51;100.00;100217.47;4204149;28;20048;-73
2023/01/23 05:55:23;;;;;;;44.88;13.10;;;;;;;-1.48;100.00;100223.22;4209301;28;20043;-73
2023/01/23 05:57:24;;;;;;;33.00;12.13;;;;;;;-1.47;100.00;100219.44;4213562;28;20044;-73
2023/01/23 05:59:24;;;;;;;34.72;11.88;;;;;;;-1.47;100.00;100216.72;4209517;28;20132;-73
2023/01/23 06:01:24;;;;;;;44.03;13.73;;;;;;;-1.47;100.00;100224.03;4208316;28;20064;-73
2023/01/23 06:03:25;;;;;;;39.08;12.82;;;;;;;-1.47;100.00;100221.34;4206503;28;20131;-73
2023/01/23 06:05:26;;;;;;;42.85;12.32;;;;;;;-1.46;100.00;100234.66;4207630;28;20286;-73
2023/01/23 06:07:26;;;;;;;38.53;13.50;;;;;;;-1.47;100.00;100233.00;4207195;28;20465;-73
2023/01/23 06:09:26;;;;;;;34.17;11.55;;;;;;;-1.49;100.00;100228.88;4207230;28;20139;-73
2023/01/23 06:11:27;;;;;;;48.60;14.50;;;;;;;-1.50;100.00;100227.25;4207138;28;20044;-73
2023/01/23 06:13:27;;;;;;;33.90;12.27;;;;;;;-1.46;100.00;100245.50;4204848;28;20044;-73
2023/01/23 06:15:27;;;;;;;29.35;11.50;;;;;;;-1.44;100.00;100242.53;4203856;28;20043;-73
2023/01/23 06:17:28;;;;;;;35.13;13.25;;;;;;;-1.44;100.00;100247.97;4213615;27;20040;-73
2023/01/23 06:19:28;;;;;;;38.22;12.65;;;;;;;-1.45;100.00;100252.56;4213485;28;20131;-73
2023/01/23 06:21:29;;;;;;;39.40;13.30;;;;;;;-1.44;100.00;100247.97;4211836;28;20480;-73
2023/01/23 06:23:29;;;;;;;38.33;12.60;;;;;;;-1.45;100.00;100249.03;4206215;28;20036;-73
2023/01/23 06:25:29;;;;;;;34.95;14.00;;;;;;;-1.42;100.00;100245.81;4211657;28;20136;-73
2023/01/23 06:27:30;;;;;;;35.30;13.00;;;;;;;-1.46;100.00;100244.69;4208773;28;20528;-73
2023/01/23 06:29:30;;;;;;;33.40;13.88;;;;;;;-1.46;100.00;100253.66;4219741;28;20130;-73
2023/01/23 06:31:31;;;;;;;32.08;12.65;;;;;;;-1.44;100.00;100261.53;4204932;28;20522;-73
2023/01/23 06:33:31;;;;;;;34.75;12.27;;;;;;;-1.45;100.00;100259.91;4216328;28;20131;-73
2023/01/23 06:35:32;;;;;;;32.13;12.60;;;;;;;-1.46;100.00;100269.13;4219358;28;20101;-73
2023/01/23 06:37:32;;;;;;;37.15;14.13;;;;;;;-1.45;100.00;100258.00;4221199;27;20040;-73
2023/01/23 06:39:33;;;;;;;43.00;12.50;;;;;;;-1.43;100.00;100271.31;4209375;27;20504;-73
2023/01/23 06:41:33;;;;;;;38.85;13.82;;;;;;;-1.44;100.00;100256.91;4215341;28;20129;-73
2023/01/23 06:43:33;;;;;;;36.40;13.60;;;;;;;-1.43;100.00;100255.03;4218903;28;20097;-73
2023/01/23 06:45:34;;;;;;;30.40;12.32;;;;;;;-1.43;100.00;100265.88;4204997;28;20454;-73
2023/01/23 06:47:34;;;;;;;34.33;11.55;;;;;;;-1.40;100.00;100270.81;4210569;28;20507;-73
2023/01/23 06:49:35;;;;;;;38.17;12.48;;;;;;;-1.42;100.00;100270.22;4204809;28;20071;-73
2023/01/23 06:51:35;;;;;;;40.15;15.05;;;;;;;-1.43;100.00;100283.00;4204635;28;20036;-73
2023/01/23 06:53:36;;;;;;;35.35;12.55;;;;;;;-1.45;100.00;100265.31;4206634;28;20032;-73
2023/01/23 06:55:36;;;;;;;38.10;14.40;;;;;;;-1.44;100.00;100275.94;4219665;28;20047;-73
2023/01/23 06:57:36;;;;;;;34.58;13.10;;;;;;;-1.46;100.00;100278.09;4220283;28;20391;-73
2023/01/23 06:59:37;;;;;;;44.13;13.70;;;;;;;-1.45;100.00;100270.75;4207717;28;20079;-73
2023/01/23 07:01:37;;;;;;;40.30;14.35;;;;;;;-1.46;100.00;100272.66;4209189;28;20538;-73
2023/01/23 07:03:37;;;;;;;41.53;14.38;;;;;;;-1.42;100.00;100272.94;4219069;28;20035;-73
2023/01/23 07:05:39;;;;;;;36.63;12.70;;;;;;;-1.40;100.00;100278.16;4220902;28;20485;-73
2023/01/23 07:07:40;;;;;;;36.50;13.55;;;;;;;-1.42;100.00;100272.94;4206371;28;20526;-73
2023/01/23 07:09:41;;;;;;;30.67;13.20;;;;;;;-1.43;100.00;100282.19;4210807;28;20431;-73
2023/01/23 07:11:41;;;;;;;39.17;14.90;;;;;;;-1.42;100.00;100273.75;4220539;28;20048;-73
2023/01/23 07:13:41;;;;;;;37.58;12.88;;;;;;;-1.40;100.00;100292.53;4217317;28;20405;-73
2023/01/23 07:15:45;;;;;;;38.38;13.93;;;;;;;-1.44;100.00;100288.69;4212113;28;20065;-73
2023/01/23 07:17:45;;;;;;;37.55;15.13;;;;;;;-1.43;100.00;100287.59;4204302;28;20391;-73
2023/01/23 07:19:46;;;;;;;40.17;15.05;;;;;;;-1.43;100.00;100293.84;4203992;28;20135;-73
2023/01/23 07:21:49;;;;;;;42.97;14.25;;;;;;;-1.44;100.00;100292.22;4204482;28;20054;-72
2023/01/23 07:23:50;;;;;;;32.55;13.60;;;;;;;-1.40;100.00;100289.81;4203536;28;20139;-73
2023/01/23 07:25:51;;;;;;;39.17;13.82;;;;;;;-1.38;100.00;100295.81;4204159;28;20071;-73
2023/01/23 07:27:51;;;;;;;41.10;15.48;;;;;;;-1.39;100.00;100302.31;4219565;28;20291;-73
2023/01/23 07:29:51;;;;;;;40.78;15.25;;;;;;;-1.42;100.00;100303.63;4205691;28;20044;-73
2023/01/23 07:31:52;;;;;;;36.88;13.88;;;;;;;-1.38;100.00;100306.69;4217355;28;20071;-73
2023/01/23 07:33:52;;;;;;;42.25;14.80;;;;;;;-1.38;100.00;100309.41;4203096;28;20094;-73
2023/01/23 07:35:53;;;;;;;42.17;13.60;;;;;;;-1.38;100.00;100311.28;4211243;28;20432;-72
2023/01/23 07:37:53;;;;;;;33.25;13.18;;;;;;;-1.37;100.00;100312.94;4219352;28;20070;-73
2023/01/23 07:39:53;;;;;;;36.25;14.20;;;;;;;-1.38;100.00;100309.41;4219045;28;20063;-73
2023/01/23 07:41:54;;;;;;;35.42;13.43;;;;;;;-1.36;100.00;100320.81;4203722;28;20059;-73
2023/01/23 07:43:54;;;;;;;42.83;15.45;;;;;;;-1.38;100.00;100320.25;4203380;28;20388;-73
2023/01/23 07:46:00;;;;;;;33.60;14.80;;;;;;;-1.35;100.00;100324.34;4203596;28;20045;-73
2023/01/23 07:48:00;;;;;;;37.33;14.18;;;;;;;-1.35;100.00;100322.44;4203382;28;20523;-73
2023/01/23 07:50:01;;;;;;;35.47;13.65;;;;;;;-1.34;100.00;100320.56;4204225;28;20048;-73
2023/01/23 07:52:02;;;;;;;34.65;13.68;;;;;;;-1.32;100.00;100330.09;4219254;28;20048;-73
2023/01/23 07:54:02;;;;;;;38.22;15.02;;;;;;;-1.34;100.00;100326.81;4217833;28;20093;-73
2023/01/23 07:56:04;;;;;;;31.98;14.48;;;;;;;-1.31;100.00;100337.19;4213238;28;20118;-73
2023/01/23 07:58:05;;;;;;;39.85;15.00;;;;;;;-1.32;100.00;100338.25;4209681;28;20063;-73
2023/01/23 08:00:06;;;;;;;36.28;13.27;;;;;;;-1.31;100.00;100333.63;4203440;28;20090;-73
2023/01/23 08:02:10;;;;;;;34.03;14.80;;;;;;;-1.31;100.00;100339.88;4203316;28;20024;-73
2023/01/23 08:04:11;;;;;;;27.67;13.73;;;;;;;-1.29;100.00;100332.31;4216219;28;20428;-73
2023/01/23 08:06:11;;;;;;;31.60;13.20;;;;;;;-1.26;100.00;100330.97;4203924;28;20039;-73
2023/01/23 08:08:12;;;;;;;27.25;13.90;;;;;;;-1.29;100.00;100329.59;4203405;28;20380;-73
2023/01/23 08:10:12;;;;;;;35.83;14.10;;;;;;;-1.28;100.00;100343.97;4213786;28;20106;-73
2023/01/23 08:12:12;;;;;;;34.70;14.23;;;;;;;-1.27;100.00;100340.19;4218535;28;20423;-73
2023/01/23 08:14:13;;;;;;;35.22;14.63;;;;;;;-1.24;100.00;100348.66;4214639;28;20517;-73
2023/01/23 08:16:13;;;;;;;34.55;15.02;;;;;;;-1.25;100.00;100346.19;4215078;28;20123;-73
2023/01/23 08:18:13;;;;;;;37.88;15.27;;;;;;;-1.23;100.00;100352.19;4210498;28;20412;-73
2023/01/23 08:20:14;;;;;;;26.90;13.20;;;;;;;-1.26;100.00;100353.50;4203503;28;20408;-73
2023/01/23 08:22:14;;;;;;;34.85;12.93;;;;;;;-1.23;100.00;100360.34;4202506;28;20293;-73
2023/01/23 08:24:15;;;;;;;31.73;14.20;;;;;;;-1.19;100.00;100356.03;4201882;28;20405;-73
2023/01/23 08:26:16;;;;;;;31.60;13.75;;;;;;;-1.19;100.00;100358.75;4213862;28;20031;-73
2023/01/23 08:28:17;;;;;;;30.88;13.63;;;;;;;-1.20;100.00;100357.09;4204846;28;20115;-73
2023/01/23 08:30:17;;;;;;;28.90;11.75;;;;;;;-1.19;100.00;100353.31;4211725;28;20044;-73
2023/01/23 08:32:17;;;;;;;31.05;14.70;;;;;;;-1.18;100.00;100363.91;4203706;28;20475;-73
2023/01/23 08:34:18;;;;;;;33.20;13.15;;;;;;;-1.14;100.00;100369.69;4212260;28;20043;-73
2023/01/23 08:36:18;;;;;;;31.05;12.68;;;;;;;-1.15;100.00;100368.88;4217613;28;20035;-73
2023/01/23 08:38:19;;;;;;;30.95;12.63;;;;;;;-1.13;100.00;100365.88;4218421;28;20359;-73
2023/01/23 08:40:19;;;;;;;28.75;13.68;;;;;;;-1.11;100.00;100371.06;4218572;28;20085;-73
2023/01/23 08:42:20;;;;;;;28.58;12.50;;;;;;;-1.14;100.00;100367.78;4216901;28;20028;-73
2023/01/23 08:44:20;;;;;;;33.90;13.23;;;;;;;-1.11;100.00;100369.16;4210715;28;20052;-73
2023/01/23 08:46:21;;;;;;;29.65;13.65;;;;;;;-1.05;100.00;100376.28;4217081;28;20051;-73
2023/01/23 08:48:23;;;;;;;31.40;16.55;;;;;;;-1.02;100.00;100370.34;4214226;28;20047;-73
2023/01/23 08:50:23;;;;;;;35.50;14.32;;;;;;;-1.04;100.00;100369.78;4202429;28;20048;-73
2023/01/23 08:52:23;;;;;;;37.13;15.98;;;;;;;-1.05;100.00;100368.16;4201994;28;20047;-73
2023/01/23 08:54:24;;;;;;;36.28;14.20;;;;;;;-1.02;100.00;100378.50;4202195;28;20139;-73
2023/01/23 08:56:25;;;;;;;39.40;15.43;;;;;;;-1.02;100.00;100377.69;4202011;28;20499;-73
2023/01/23 08:58:25;;;;;;;31.83;15.73;;;;;;;-1.01;100.00;100373.88;4203679;28;20035;-73
2023/01/23 09:00:26;;;;;;;38.65;15.20;;;;;;;-1.00;100.00;100379.06;4202068;28;20043;-73
2023/01/23 09:02:26;;;;;;;35.33;13.35;;;;;;;-0.97;100.00;100383.19;4215521;28;20483;-73
2023/01/23 09:04:26;;;;;;;44.85;19.65;;;;;;;-0.96;100.00;100373.94;4217656;28;20031;-73
2023/01/23 09:06:27;;;;;;;40.33;15.73;;;;;;;-0.93;100.00;100381.56;4213584;28;20356;-72
2023/01/23 09:08:27;;;;;;;39.22;16.27;;;;;;;-0.94;100.00;100380.75;4202059;28;20052;-73
2023/01/23 09:10:28;;;;;;;35.13;14.48;;;;;;;-0.91;100.00;100384.84;4201441;28;20040;-73
2023/01/23 09:12:28;;;;;;;40.40;15.98;;;;;;;-0.88;100.00;100381.63;4204951;28;20471;-73